createdAt,value
2018-08-11T00:01:49.003Z,92.10
2018-08-11T00:04:17.777Z,92.60
2018-08-11T00:06:46.563Z,92.40
2018-08-11T00:09:15.311Z,92.30
2018-08-11T00:11:44.109Z,92.30
2018-08-11T00:14:12.881Z,92.30
2018-08-11T00:16:41.626Z,92.40
2018-08-11T00:19:10.396Z,92.50
2018-08-11T00:21:39.221Z,92.70
2018-08-11T00:24:08.102Z,92.40
2018-08-11T00:26:36.896Z,92.70
2018-08-11T00:29:05.860Z,92.80
2018-08-11T00:31:34.674Z,92.70
2018-08-11T00:34:03.545Z,93.00
2018-08-11T00:36:32.320Z,93.30
2018-08-11T00:39:01.064Z,93.60
2018-08-11T00:41:29.884Z,93.30
2018-08-11T00:43:58.693Z,93.10
2018-08-11T00:46:27.600Z,93.50
2018-08-11T00:48:56.455Z,93.60
2018-08-11T00:51:25.181Z,93.40
2018-08-11T00:53:54.034Z,93.90
2018-08-11T00:56:22.894Z,93.90
2018-08-11T00:58:51.746Z,93.90
2018-08-11T01:01:20.606Z,93.90
2018-08-11T01:03:49.365Z,93.90
2018-08-11T01:06:18.106Z,93.80
2018-08-11T01:08:46.836Z,93.80
2018-08-11T01:11:15.688Z,93.90
2018-08-11T01:13:50.835Z,93.90
2018-08-11T01:16:25.893Z,94.20
2018-08-11T01:19:00.384Z,94.70
2018-08-11T01:21:33.150Z,94.60
2018-08-11T01:24:07.803Z,94.70
2018-08-11T01:26:41.841Z,94.80
2018-08-11T01:29:15.750Z,95.00
2018-08-11T01:31:50.228Z,95.30
2018-08-11T01:34:32.014Z,95.50
2018-08-11T01:37:05.717Z,95.00
2018-08-11T01:39:39.945Z,94.90
2018-08-11T01:42:17.366Z,95.20
2018-08-11T01:44:51.991Z,95.10
2018-08-11T01:47:25.210Z,95.20
2018-08-11T01:50:00.223Z,95.50
2018-08-11T01:52:35.547Z,95.80
2018-08-11T01:55:10.292Z,95.60
2018-08-11T01:57:45.049Z,95.60
2018-08-11T02:00:22.030Z,95.80
2018-08-11T02:02:55.909Z,95.70
2018-08-11T02:05:30.027Z,95.60
2018-08-11T02:08:04.931Z,95.60
2018-08-11T02:10:39.887Z,95.50
2018-08-11T02:13:13.664Z,95.50
2018-08-11T02:15:49.708Z,95.20
2018-08-11T02:18:22.959Z,95.00
2018-08-11T02:20:56.240Z,95.00
2018-08-11T02:23:29.581Z,95.20
2018-08-11T02:26:02.490Z,94.80
2018-08-11T02:28:36.318Z,95.30
2018-08-11T02:31:11.859Z,94.80
2018-08-11T02:33:48.353Z,95.10
2018-08-11T02:36:22.347Z,95.10
2018-08-11T02:38:57.041Z,95.10
2018-08-11T02:41:31.260Z,95.00
2018-08-11T02:44:05.301Z,95.10
2018-08-11T02:46:40.817Z,95.10
2018-08-11T02:49:13.946Z,95.20
2018-08-11T02:51:47.406Z,95.20
2018-08-11T02:54:22.564Z,95.60
2018-08-11T02:56:56.817Z,95.80
2018-08-11T02:59:29.708Z,96.00
2018-08-11T03:02:02.810Z,95.90
2018-08-11T03:04:36.326Z,96.10
2018-08-11T03:07:10.912Z,96.20
2018-08-11T03:09:44.133Z,96.10
2018-08-11T03:12:17.317Z,96.30
2018-08-11T03:14:50.875Z,96.60
2018-08-11T03:17:24.903Z,96.70
2018-08-11T03:19:58.551Z,97.00
2018-08-11T03:22:32.569Z,97.20
2018-08-11T03:25:11.802Z,97.30
2018-08-11T03:27:44.794Z,97.50
2018-08-11T03:30:20.904Z,97.50
2018-08-11T03:32:53.937Z,97.80
2018-08-11T03:35:28.317Z,98.00
2018-08-11T03:38:02.396Z,97.90
2018-08-11T03:40:36.390Z,98.20
2018-08-11T03:43:10.257Z,98.20
2018-08-11T03:45:43.373Z,98.10
2018-08-11T03:48:18.496Z,98.20
2018-08-11T03:50:52.623Z,98.30
2018-08-11T03:53:28.500Z,98.20
2018-08-11T03:56:03.369Z,98.50
2018-08-11T03:58:36.708Z,98.60
2018-08-11T04:01:10.258Z,98.20
2018-08-11T04:03:45.011Z,98.30
2018-08-11T04:06:18.323Z,98.40
2018-08-11T04:08:51.470Z,98.50
2018-08-11T04:11:26.728Z,98.30
2018-08-11T04:13:59.888Z,98.30
2018-08-11T04:16:33.203Z,97.90
2018-08-11T04:19:07.416Z,97.80
2018-08-11T04:21:42.215Z,97.30
2018-08-11T04:24:16.860Z,97.20
2018-08-11T04:26:50.021Z,97.10
2018-08-11T04:29:24.464Z,97.30
2018-08-11T04:31:58.600Z,97.00
2018-08-11T04:34:32.575Z,96.80
2018-08-11T04:37:07.650Z,97.10
2018-08-11T04:39:42.363Z,97.30
2018-08-11T04:42:15.448Z,97.20
2018-08-11T04:44:49.921Z,97.30
2018-08-11T04:47:24.407Z,97.40
2018-08-11T04:49:58.308Z,97.50
2018-08-11T04:52:31.096Z,97.50
2018-08-11T04:55:05.949Z,97.20
2018-08-11T04:57:40.919Z,97.10
2018-08-11T05:00:14.403Z,97.20
2018-08-11T05:02:49.464Z,97.50
2018-08-11T05:05:23.250Z,97.30
2018-08-11T05:07:56.404Z,96.80
2018-08-11T05:10:39.648Z,96.70
2018-08-11T05:13:14.843Z,96.20
2018-08-11T05:15:49.792Z,96.50
2018-08-11T05:18:25.169Z,96.30
2018-08-11T05:20:59.441Z,96.30
2018-08-11T05:23:35.633Z,96.20
2018-08-11T05:26:08.800Z,96.20
2018-08-11T05:28:48.974Z,95.90
2018-08-11T05:31:21.996Z,95.90
2018-08-11T05:33:54.807Z,94.50
2018-08-11T05:36:27.632Z,92.80
2018-08-11T05:39:01.693Z,91.50
2018-08-11T05:41:33.448Z,90.70
2018-08-11T05:44:05.250Z,90.00
2018-08-11T05:46:36.951Z,89.30
2018-08-11T05:49:09.562Z,88.30
2018-08-11T05:51:43.172Z,87.40
2018-08-11T05:54:15.995Z,87.50
2018-08-11T05:56:49.218Z,86.90
2018-08-11T05:59:22.513Z,85.80
2018-08-11T06:01:55.609Z,86.30
2018-08-11T06:04:27.937Z,85.00
2018-08-11T06:07:01.013Z,81.80
2018-08-11T06:09:34.271Z,80.50
2018-08-11T06:12:07.387Z,78.40
2018-08-11T06:14:40.206Z,76.00
2018-08-11T06:17:15.232Z,75.30
2018-08-11T06:19:46.053Z,74.30
2018-08-11T06:22:17.908Z,74.80
2018-08-11T06:24:50.634Z,72.80
2018-08-11T06:27:23.367Z,72.40
2018-08-11T06:29:56.501Z,72.20
2018-08-11T06:32:29.328Z,71.50
2018-08-11T06:35:01.822Z,71.40
2018-08-11T06:37:34.472Z,71.00
2018-08-11T06:40:08.010Z,70.60
2018-08-11T06:42:41.855Z,68.70
2018-08-11T06:45:14.330Z,69.20
2018-08-11T06:47:47.187Z,68.90
2018-08-11T06:50:18.921Z,69.40
2018-08-11T06:52:50.373Z,69.00
2018-08-11T06:55:23.152Z,68.70
2018-08-11T06:57:54.799Z,68.20
2018-08-11T07:00:23.667Z,68.10
2018-08-11T07:02:52.489Z,68.00
2018-08-11T07:05:21.209Z,67.90
2018-08-11T07:07:50.102Z,68.00
2018-08-11T07:10:18.971Z,68.40
2018-08-11T07:12:47.685Z,68.40
2018-08-11T07:15:16.582Z,68.50
2018-08-11T07:17:45.225Z,68.00
2018-08-11T07:20:13.999Z,67.60
2018-08-11T07:22:42.742Z,67.00
2018-08-11T07:25:11.508Z,67.60
2018-08-11T07:27:40.343Z,67.40
2018-08-11T07:30:09.127Z,68.50
2018-08-11T07:32:37.856Z,68.40
2018-08-11T07:35:06.645Z,69.10
2018-08-11T07:37:35.444Z,69.50
2018-08-11T07:40:04.833Z,69.10
2018-08-11T07:42:33.627Z,68.80
2018-08-11T07:45:02.690Z,68.10
2018-08-11T07:47:31.471Z,67.90
2018-08-11T07:50:00.232Z,68.00
2018-08-11T07:52:29.025Z,68.70
2018-08-11T07:54:57.765Z,68.60
2018-08-11T07:57:26.481Z,70.20
2018-08-11T07:59:55.219Z,68.70
2018-08-11T08:02:23.929Z,66.60
2018-08-11T08:04:52.614Z,67.20
2018-08-11T08:07:21.383Z,67.60
2018-08-11T08:09:50.133Z,67.80
2018-08-11T08:12:18.880Z,66.70
2018-08-11T08:14:47.638Z,66.80
2018-08-11T08:17:16.412Z,65.10
2018-08-11T08:19:45.228Z,64.90
2018-08-11T08:22:13.980Z,65.90
2018-08-11T08:24:42.745Z,65.40
2018-08-11T08:27:11.613Z,64.30
2018-08-11T08:29:40.478Z,64.90
2018-08-11T08:32:09.244Z,64.40
2018-08-11T08:34:38.013Z,62.80
2018-08-11T08:37:06.814Z,62.70
2018-08-11T08:39:35.569Z,62.00
2018-08-11T08:42:04.336Z,62.00
2018-08-11T08:44:33.052Z,62.30
2018-08-11T08:47:01.851Z,62.60
2018-08-11T08:49:30.580Z,60.90
2018-08-11T08:51:59.285Z,59.40
2018-08-11T08:54:28.185Z,59.40
2018-08-11T08:56:56.882Z,60.00
2018-08-11T08:59:25.637Z,59.60
2018-08-11T09:01:54.364Z,59.50
2018-08-11T09:04:23.082Z,59.20
2018-08-11T09:06:51.831Z,59.10
2018-08-11T09:09:20.572Z,58.60
2018-08-11T09:11:49.307Z,59.30
2018-08-11T09:14:18.201Z,58.40
2018-08-11T09:16:47.005Z,59.10
2018-08-11T09:19:15.697Z,57.90
2018-08-11T09:21:44.423Z,56.70
2018-08-11T09:24:13.105Z,56.30
2018-08-11T09:26:41.858Z,55.30
2018-08-11T09:29:10.699Z,56.00
2018-08-11T09:31:39.493Z,56.90
2018-08-11T09:34:08.234Z,57.30
2018-08-11T09:36:37.092Z,55.20
2018-08-11T09:39:07.935Z,56.00
2018-08-11T09:41:36.651Z,56.50
2018-08-11T09:44:05.467Z,56.40
2018-08-11T09:46:34.201Z,55.70
2018-08-11T09:49:02.959Z,56.40
2018-08-11T09:51:31.709Z,56.20
2018-08-11T09:54:00.477Z,55.40
2018-08-11T09:56:29.345Z,56.00
2018-08-11T09:58:58.089Z,55.40
2018-08-11T10:01:32.264Z,56.10
2018-08-11T10:04:01.026Z,55.50
2018-08-11T10:06:29.805Z,55.00
2018-08-11T10:08:58.631Z,54.70
2018-08-11T10:11:27.349Z,54.10
2018-08-11T10:13:56.200Z,54.80
2018-08-11T10:16:25.009Z,55.90
2018-08-11T10:18:53.750Z,54.00
2018-08-11T10:21:22.500Z,54.10
2018-08-11T10:23:51.255Z,53.20
2018-08-11T10:26:19.961Z,53.00
2018-08-11T10:28:48.667Z,52.60
2018-08-11T10:31:17.473Z,52.20
2018-08-11T10:33:46.277Z,52.70
2018-08-11T10:36:15.429Z,52.90
2018-08-11T10:38:44.113Z,52.70
2018-08-11T10:41:12.904Z,52.50
2018-08-11T10:43:41.798Z,51.10
2018-08-11T10:46:10.531Z,50.70
2018-08-11T10:48:39.350Z,50.50
2018-08-11T10:51:08.277Z,51.00
2018-08-11T10:53:36.973Z,51.50
2018-08-11T10:56:05.779Z,52.20
2018-08-11T10:58:34.486Z,51.50
2018-08-11T11:01:03.216Z,50.60
2018-08-11T11:03:32.051Z,50.90
2018-08-11T11:06:00.760Z,51.20
2018-08-11T11:08:29.551Z,52.30
2018-08-11T11:10:58.236Z,51.30
2018-08-11T11:13:26.910Z,51.50
2018-08-11T11:15:55.704Z,50.50
2018-08-11T11:18:24.484Z,49.50
2018-08-11T11:20:53.399Z,49.10
2018-08-11T11:23:22.061Z,49.60
2018-08-11T11:25:50.997Z,48.60
2018-08-11T11:28:19.696Z,49.20
2018-08-11T11:30:48.417Z,49.50
2018-08-11T11:33:17.145Z,49.00
2018-08-11T11:35:45.947Z,49.20
2018-08-11T11:38:14.677Z,50.10
2018-08-11T11:40:43.541Z,48.70
2018-08-11T11:43:12.261Z,49.80
2018-08-11T11:45:41.037Z,49.30
2018-08-11T11:48:09.814Z,47.30
2018-08-11T11:50:38.541Z,47.80
2018-08-11T11:53:07.332Z,47.70
2018-08-11T11:55:36.086Z,48.30
2018-08-11T11:58:04.789Z,48.60
2018-08-11T12:00:33.497Z,48.50
2018-08-11T12:03:02.248Z,49.50
2018-08-11T12:05:31.085Z,50.80
2018-08-11T12:07:59.823Z,47.90
2018-08-11T12:10:28.578Z,47.50
2018-08-11T12:12:57.326Z,46.90
2018-08-11T12:15:26.217Z,46.10
2018-08-11T12:17:54.949Z,46.20
2018-08-11T12:20:23.770Z,47.70
2018-08-11T12:22:52.429Z,47.10
2018-08-11T12:25:21.264Z,48.20
2018-08-11T12:27:49.976Z,48.00
2018-08-11T12:30:19.125Z,48.60
2018-08-11T12:32:47.864Z,47.10
2018-08-11T12:35:16.586Z,47.10
2018-08-11T12:37:45.376Z,47.10
2018-08-11T12:40:14.122Z,47.80
2018-08-11T12:42:42.827Z,47.80
2018-08-11T12:45:11.642Z,46.50
2018-08-11T12:47:40.353Z,46.30
2018-08-11T12:50:09.181Z,46.20
2018-08-11T12:52:38.030Z,47.10
2018-08-11T12:55:06.808Z,47.10
2018-08-11T12:57:35.609Z,45.60
2018-08-11T13:00:05.222Z,45.20
2018-08-11T13:02:34.030Z,45.50
2018-08-11T13:05:02.729Z,45.30
2018-08-11T13:07:31.580Z,44.00
2018-08-11T13:10:00.430Z,45.10
2018-08-11T13:12:29.746Z,44.50
2018-08-11T13:14:58.484Z,44.40
2018-08-11T13:17:27.352Z,44.30
2018-08-11T13:19:56.081Z,41.70
2018-08-11T13:22:24.879Z,42.80
2018-08-11T13:24:53.568Z,43.70
2018-08-11T13:27:22.374Z,44.50
2018-08-11T13:29:51.130Z,44.00
2018-08-11T13:32:19.889Z,45.00
2018-08-11T13:34:48.624Z,46.20
2018-08-11T13:37:17.408Z,44.90
2018-08-11T13:39:49.076Z,43.80
2018-08-11T13:42:17.940Z,43.90
2018-08-11T13:44:46.710Z,45.00
2018-08-11T13:47:15.592Z,43.50
2018-08-11T13:49:44.417Z,43.60
2018-08-11T13:52:13.215Z,44.40
2018-08-11T13:54:41.958Z,45.40
2018-08-11T13:57:10.686Z,44.70
2018-08-11T13:59:39.418Z,45.50
2018-08-11T14:02:08.253Z,43.90
2018-08-11T14:04:37.095Z,43.60
2018-08-11T14:07:05.824Z,43.80
2018-08-11T14:09:34.633Z,44.20
2018-08-11T14:12:03.373Z,44.30
2018-08-11T14:14:32.103Z,44.90
2018-08-11T14:17:00.843Z,44.00
2018-08-11T14:19:29.538Z,44.00
2018-08-11T14:21:58.339Z,43.20
2018-08-11T14:24:27.101Z,42.80
2018-08-11T14:26:55.822Z,42.30
2018-08-11T14:29:24.501Z,42.20
2018-08-11T14:31:53.235Z,41.30
2018-08-11T14:34:21.965Z,41.90
2018-08-11T14:36:50.734Z,41.40
2018-08-11T14:39:19.500Z,41.60
2018-08-11T14:41:48.196Z,43.00
2018-08-11T14:44:17.000Z,42.20
2018-08-11T14:46:45.712Z,41.80
2018-08-11T14:49:14.476Z,41.00
2018-08-11T14:51:43.259Z,41.60
2018-08-11T14:54:11.977Z,41.10
2018-08-11T14:56:41.545Z,39.70
2018-08-11T14:59:10.233Z,40.10
2018-08-11T15:01:38.988Z,40.70
2018-08-11T15:04:07.795Z,41.80
2018-08-11T15:06:36.597Z,41.20
2018-08-11T15:09:07.965Z,41.50
2018-08-11T15:11:36.714Z,41.70
2018-08-11T15:14:05.520Z,41.50
2018-08-11T15:16:34.321Z,42.40
2018-08-11T15:19:03.122Z,42.40
2018-08-11T15:21:32.222Z,42.20
2018-08-11T15:24:00.995Z,41.40
2018-08-11T15:26:29.716Z,41.30
2018-08-11T15:28:58.449Z,40.90
2018-08-11T15:31:27.283Z,40.80
2018-08-11T15:33:56.028Z,39.50
2018-08-11T15:36:24.756Z,38.90
2018-08-11T15:38:53.501Z,39.10
2018-08-11T15:41:22.249Z,39.50
2018-08-11T15:43:50.970Z,39.50
2018-08-11T15:46:19.656Z,40.00
2018-08-11T15:48:48.464Z,39.50
2018-08-11T15:51:17.231Z,39.20
2018-08-11T15:53:46.060Z,39.20
2018-08-11T15:56:14.862Z,38.70
2018-08-11T15:58:43.612Z,39.10
2018-08-11T16:01:12.397Z,40.00
2018-08-11T16:03:41.152Z,39.90
2018-08-11T16:06:09.901Z,39.10
2018-08-11T16:08:38.620Z,39.00
2018-08-11T16:11:07.388Z,37.80
2018-08-11T16:13:36.128Z,37.60
2018-08-11T16:16:04.870Z,38.00
2018-08-11T16:18:33.622Z,38.20
2018-08-11T16:21:02.352Z,37.80
2018-08-11T16:23:31.120Z,38.20
2018-08-11T16:25:59.858Z,38.60
2018-08-11T16:28:28.751Z,38.30
2018-08-11T16:30:57.524Z,37.20
2018-08-11T16:33:26.279Z,38.50
2018-08-11T16:35:54.991Z,38.50
2018-08-11T16:38:23.761Z,38.50
2018-08-11T16:40:52.551Z,38.60
2018-08-11T16:43:21.320Z,38.30
2018-08-11T16:45:50.078Z,38.10
2018-08-11T16:48:18.750Z,38.20
2018-08-11T16:50:47.437Z,38.50
2018-08-11T16:53:16.155Z,39.00
2018-08-11T16:55:44.837Z,38.70
2018-08-11T16:58:13.588Z,38.50
2018-08-11T17:00:42.316Z,38.80
2018-08-11T17:03:11.033Z,38.90
2018-08-11T17:05:39.869Z,38.60
2018-08-11T17:08:08.744Z,38.60
2018-08-11T17:10:37.492Z,38.10
2018-08-11T17:13:06.346Z,38.20
2018-08-11T17:15:35.075Z,37.90
2018-08-11T17:18:03.906Z,38.10
2018-08-11T17:20:32.674Z,38.80
2018-08-11T17:23:01.384Z,37.90
2018-08-11T17:25:30.072Z,38.10
2018-08-11T17:27:58.920Z,38.20
2018-08-11T17:30:27.625Z,38.20
2018-08-11T17:32:56.392Z,38.10
2018-08-11T17:35:25.085Z,38.00
2018-08-11T17:37:53.776Z,37.80
2018-08-11T17:40:22.530Z,38.40
2018-08-11T17:42:51.261Z,38.90
2018-08-11T17:45:20.008Z,38.60
2018-08-11T17:47:48.840Z,38.50
2018-08-11T17:50:17.624Z,38.80
2018-08-11T17:52:46.336Z,39.00
2018-08-11T17:55:15.136Z,39.20
2018-08-11T17:57:43.908Z,39.80
2018-08-11T18:00:12.707Z,39.50
2018-08-11T18:02:41.643Z,39.70
2018-08-11T18:05:10.453Z,39.80
2018-08-11T18:07:39.171Z,39.70
2018-08-11T18:10:08.021Z,39.90
2018-08-11T18:12:36.809Z,40.90
2018-08-11T18:15:05.644Z,39.90
2018-08-11T18:17:34.614Z,40.10
2018-08-11T18:20:03.427Z,40.60
2018-08-11T18:22:32.140Z,40.50
2018-08-11T18:25:00.986Z,40.50
2018-08-11T18:27:29.684Z,41.20
2018-08-11T18:29:58.449Z,40.60
2018-08-11T18:32:27.192Z,41.30
2018-08-11T18:34:55.970Z,41.10
2018-08-11T18:37:24.677Z,41.40
2018-08-11T18:39:53.488Z,41.40
2018-08-11T18:42:22.173Z,41.70
2018-08-11T18:44:50.885Z,41.50
2018-08-11T18:47:19.569Z,41.80
2018-08-11T18:49:48.338Z,41.80
2018-08-11T18:52:17.064Z,41.50
2018-08-11T18:54:45.836Z,42.60
2018-08-11T18:57:14.560Z,42.60
2018-08-11T18:59:43.315Z,41.80
2018-08-11T19:02:12.049Z,42.00
2018-08-11T19:04:40.884Z,42.10
2018-08-11T19:07:09.705Z,42.20
2018-08-11T19:09:38.413Z,42.60
2018-08-11T19:12:07.352Z,43.10
2018-08-11T19:14:36.046Z,43.20
2018-08-11T19:17:04.833Z,43.40
2018-08-11T19:19:33.563Z,43.20
2018-08-11T19:22:02.362Z,43.30
2018-08-11T19:24:31.060Z,44.10
2018-08-11T19:26:59.844Z,43.40
2018-08-11T19:29:28.612Z,43.70
2018-08-11T19:31:57.425Z,43.10
2018-08-11T19:34:26.164Z,43.50
2018-08-11T19:36:54.893Z,42.90
2018-08-11T19:39:23.710Z,43.50
2018-08-11T19:41:52.421Z,44.50
2018-08-11T19:44:21.182Z,45.30
2018-08-11T19:46:49.939Z,46.10
2018-08-11T19:49:18.838Z,47.10
2018-08-11T19:51:47.611Z,48.50
2018-08-11T19:54:16.337Z,48.50
2018-08-11T19:56:45.125Z,49.30
2018-08-11T19:59:13.814Z,49.90
2018-08-11T20:01:42.619Z,50.40
2018-08-11T20:04:16.943Z,50.80
2018-08-11T20:06:46.352Z,51.40
2018-08-11T20:09:15.108Z,51.80
2018-08-11T20:11:43.866Z,52.20
2018-08-11T20:14:12.622Z,53.30
2018-08-11T20:16:41.377Z,53.30
2018-08-11T20:19:10.141Z,53.90
2018-08-11T20:21:38.824Z,55.00
2018-08-11T20:24:07.612Z,55.00
2018-08-11T20:26:36.392Z,55.50
2018-08-11T20:29:05.200Z,55.50
2018-08-11T20:31:34.001Z,56.00
2018-08-11T20:34:02.729Z,56.00
2018-08-11T20:36:31.507Z,56.90
2018-08-11T20:39:00.278Z,57.00
2018-08-11T20:41:28.972Z,57.70
2018-08-11T20:43:57.757Z,58.10
2018-08-11T20:46:26.667Z,58.40
2018-08-11T20:48:55.405Z,58.90
2018-08-11T20:51:24.352Z,59.10
2018-08-11T20:53:53.113Z,58.70
2018-08-11T20:56:21.904Z,59.10
2018-08-11T20:58:50.575Z,59.40
2018-08-11T21:01:19.272Z,60.00
2018-08-11T21:03:48.034Z,60.40
2018-08-11T21:06:16.824Z,60.70
2018-08-11T21:08:45.805Z,60.20
2018-08-11T21:11:14.649Z,60.80
2018-08-11T21:13:43.360Z,60.60
2018-08-11T21:16:12.117Z,61.00
2018-08-11T21:18:40.875Z,60.90
2018-08-11T21:21:09.619Z,61.80
2018-08-11T21:23:38.444Z,62.50
2018-08-11T21:26:07.326Z,62.70
2018-08-11T21:28:36.083Z,62.80
2018-08-11T21:31:04.854Z,62.40
2018-08-11T21:33:33.595Z,62.20
2018-08-11T21:36:02.458Z,62.70
2018-08-11T21:38:31.883Z,62.40
2018-08-11T21:41:00.702Z,62.50
2018-08-11T21:43:29.500Z,63.00
2018-08-11T21:45:58.240Z,63.00
2018-08-11T21:48:26.941Z,63.10
2018-08-11T21:50:55.752Z,63.60
2018-08-11T21:53:24.558Z,63.60
2018-08-11T21:55:53.445Z,63.10
2018-08-11T21:58:22.215Z,63.70
2018-08-11T22:00:57.374Z,63.80
2018-08-11T22:03:26.141Z,63.70
2018-08-11T22:05:54.889Z,64.60
2018-08-11T22:08:23.748Z,65.30
2018-08-11T22:10:52.606Z,65.00
2018-08-11T22:13:21.463Z,65.50
2018-08-11T22:15:50.273Z,65.90
2018-08-11T22:18:19.152Z,65.80
2018-08-11T22:20:47.926Z,66.10
2018-08-11T22:23:16.672Z,66.10
2018-08-11T22:25:45.513Z,65.80
2018-08-11T22:28:14.321Z,66.50
2018-08-11T22:30:43.097Z,66.20
2018-08-11T22:33:11.845Z,67.10
2018-08-11T22:35:40.667Z,65.80
2018-08-11T22:38:09.457Z,66.60
2018-08-11T22:40:38.191Z,67.30
2018-08-11T22:43:06.976Z,67.10
2018-08-11T22:45:35.905Z,67.60
2018-08-11T22:48:05.290Z,67.60
2018-08-11T22:50:34.086Z,67.70
2018-08-11T22:53:02.985Z,67.60
2018-08-11T22:55:31.672Z,67.70
2018-08-11T22:58:00.488Z,67.80
2018-08-11T23:00:29.281Z,68.30
2018-08-11T23:02:58.005Z,68.60
2018-08-11T23:05:26.831Z,69.00
2018-08-11T23:07:55.557Z,69.50
2018-08-11T23:10:24.308Z,69.60
2018-08-11T23:12:53.082Z,70.10
2018-08-11T23:15:21.830Z,70.10
2018-08-11T23:17:51.228Z,69.90
2018-08-11T23:20:19.972Z,70.60
2018-08-11T23:22:48.810Z,71.20
2018-08-11T23:25:17.613Z,71.40
2018-08-11T23:27:46.427Z,72.10
2018-08-11T23:30:16.662Z,72.20
2018-08-11T23:32:45.806Z,72.60
2018-08-11T23:35:14.763Z,72.70
2018-08-11T23:37:43.602Z,73.00
2018-08-11T23:40:12.531Z,73.30
2018-08-11T23:42:41.338Z,73.90
2018-08-11T23:45:13.557Z,74.30
2018-08-11T23:47:42.520Z,74.50
2018-08-11T23:50:12.204Z,75.10
2018-08-11T23:52:42.092Z,75.90
2018-08-11T23:55:12.095Z,75.80
2018-08-11T23:57:40.932Z,76.90
